sensor_id;sensor_type;location;lat;lon;timestamp;pressure;altitude;pressure_sealevel;temperature;humidity
60267;BME280;46125;61.360;-149.532;2023-07-29T00:02:17;100183.44;;;22.65;42.91
60267;BME280;46125;61.360;-149.532;2023-07-29T00:04:45;100181.77;;;21.73;45.34
60267;BME280;46125;61.360;-149.532;2023-07-29T00:07:13;100183.52;;;22.65;42.01
60267;BME280;46125;61.360;-149.532;2023-07-29T00:09:42;100181.17;;;22.83;41.38
60267;BME280;46125;61.360;-149.532;2023-07-29T00:12:10;100184.27;;;23.88;41.62
60267;BME280;46125;61.360;-149.532;2023-07-29T00:14:39;100183.56;;;23.13;41.83
60267;BME280;46125;61.360;-149.532;2023-07-29T00:17:07;100181.36;;;22.24;41.38
60267;BME280;46125;61.360;-149.532;2023-07-29T00:19:36;100182.25;;;23.07;42.42
60267;BME280;46125;61.360;-149.532;2023-07-29T00:22:05;100182.36;;;21.24;44.25
60267;BME280;46125;61.360;-149.532;2023-07-29T00:24:33;100177.29;;;23.08;42.21
60267;BME280;46125;61.360;-149.532;2023-07-29T00:27:01;100178.83;;;22.74;43.32
60267;BME280;46125;61.360;-149.532;2023-07-29T00:29:30;100184.29;;;23.45;43.01
60267;BME280;46125;61.360;-149.532;2023-07-29T00:31:58;100181.77;;;23.34;44.60
60267;BME280;46125;61.360;-149.532;2023-07-29T00:34:26;100185.53;;;22.00;42.94
60267;BME280;46125;61.360;-149.532;2023-07-29T00:36:55;100185.24;;;23.03;43.49
60267;BME280;46125;61.360;-149.532;2023-07-29T00:39:23;100178.90;;;23.55;41.75
60267;BME280;46125;61.360;-149.532;2023-07-29T00:41:52;100172.14;;;22.60;46.92
60267;BME280;46125;61.360;-149.532;2023-07-29T00:44:20;100158.19;;;21.78;48.06
60267;BME280;46125;61.360;-149.532;2023-07-29T00:46:50;100147.33;;;22.40;47.80
60267;BME280;46125;61.360;-149.532;2023-07-29T00:49:20;100143.79;;;22.02;47.06
60267;BME280;46125;61.360;-149.532;2023-07-29T00:51:49;100153.82;;;21.45;45.58
60267;BME280;46125;61.360;-149.532;2023-07-29T00:54:18;100165.89;;;22.10;46.02
60267;BME280;46125;61.360;-149.532;2023-07-29T00:56:46;100167.59;;;19.57;50.40
60267;BME280;46125;61.360;-149.532;2023-07-29T00:59:15;100159.21;;;21.46;47.46
60267;BME280;46125;61.360;-149.532;2023-07-29T01:01:43;100154.36;;;22.07;45.67
60267;BME280;46125;61.360;-149.532;2023-07-29T01:04:11;100154.05;;;21.91;46.37
60267;BME280;46125;61.360;-149.532;2023-07-29T01:06:45;100154.49;;;21.58;46.50
60267;BME280;46125;61.360;-149.532;2023-07-29T01:09:24;100157.78;;;21.18;48.50
60267;BME280;46125;61.360;-149.532;2023-07-29T01:12:05;100158.83;;;21.92;47.16
60267;BME280;46125;61.360;-149.532;2023-07-29T01:14:41;100154.61;;;21.49;47.38
60267;BME280;46125;61.360;-149.532;2023-07-29T01:17:15;100164.51;;;22.14;48.81
60267;BME280;46125;61.360;-149.532;2023-07-29T01:20:00;100161.67;;;21.97;48.45
60267;BME280;46125;61.360;-149.532;2023-07-29T01:22:29;100162.42;;;20.70;50.41
60267;BME280;46125;61.360;-149.532;2023-07-29T01:24:59;100162.44;;;22.59;47.14
60267;BME280;46125;61.360;-149.532;2023-07-29T01:27:27;100161.52;;;23.15;45.48
60267;BME280;46125;61.360;-149.532;2023-07-29T01:29:56;100160.50;;;21.56;49.04
60267;BME280;46125;61.360;-149.532;2023-07-29T01:32:30;100158.37;;;21.19;50.42
60267;BME280;46125;61.360;-149.532;2023-07-29T01:35:07;100156.69;;;21.43;49.53
60267;BME280;46125;61.360;-149.532;2023-07-29T01:37:39;100160.70;;;21.62;48.88
60267;BME280;46125;61.360;-149.532;2023-07-29T01:40:09;100164.14;;;22.60;47.11
60267;BME280;46125;61.360;-149.532;2023-07-29T01:42:39;100165.15;;;22.14;49.34
60267;BME280;46125;61.360;-149.532;2023-07-29T01:45:07;100167.72;;;22.40;47.81
60267;BME280;46125;61.360;-149.532;2023-07-29T01:47:36;100169.34;;;21.85;49.75
60267;BME280;46125;61.360;-149.532;2023-07-29T01:50:06;100168.82;;;22.59;47.33
60267;BME280;46125;61.360;-149.532;2023-07-29T01:52:34;100168.55;;;23.08;45.30
60267;BME280;46125;61.360;-149.532;2023-07-29T01:55:03;100173.17;;;23.17;45.88
60267;BME280;46125;61.360;-149.532;2023-07-29T01:57:31;100174.52;;;22.97;47.34
60267;BME280;46125;61.360;-149.532;2023-07-29T01:59:59;100177.88;;;24.22;44.99
60267;BME280;46125;61.360;-149.532;2023-07-29T02:02:28;100177.40;;;21.80;49.57
60267;BME280;46125;61.360;-149.532;2023-07-29T02:04:56;100176.92;;;23.57;45.43
60267;BME280;46125;61.360;-149.532;2023-07-29T02:07:25;100182.45;;;23.50;46.15
60267;BME280;46125;61.360;-149.532;2023-07-29T02:09:53;100185.39;;;24.01;47.06
60267;BME280;46125;61.360;-149.532;2023-07-29T02:12:22;100187.62;;;23.38;48.25
60267;BME280;46125;61.360;-149.532;2023-07-29T02:14:50;100190.23;;;22.90;49.24
60267;BME280;46125;61.360;-149.532;2023-07-29T02:17:19;100189.64;;;21.68;50.24
60267;BME280;46125;61.360;-149.532;2023-07-29T02:19:47;100194.59;;;20.27;52.82
60267;BME280;46125;61.360;-149.532;2023-07-29T02:22:17;100194.37;;;21.28;52.19
60267;BME280;46125;61.360;-149.532;2023-07-29T02:24:46;100200.60;;;21.18;53.74
60267;BME280;46125;61.360;-149.532;2023-07-29T02:27:14;100199.36;;;21.74;49.95
60267;BME280;46125;61.360;-149.532;2023-07-29T02:29:43;100193.59;;;21.81;51.36
60267;BME280;46125;61.360;-149.532;2023-07-29T02:32:11;100196.14;;;20.32;53.18
60267;BME280;46125;61.360;-149.532;2023-07-29T02:34:40;100192.81;;;21.43;52.35
60267;BME280;46125;61.360;-149.532;2023-07-29T02:37:08;100195.88;;;20.40;52.98
60267;BME280;46125;61.360;-149.532;2023-07-29T02:39:37;100193.80;;;20.70;51.94
60267;BME280;46125;61.360;-149.532;2023-07-29T02:42:05;100191.26;;;20.74;52.31
60267;BME280;46125;61.360;-149.532;2023-07-29T02:44:34;100188.60;;;19.64;54.81
60267;BME280;46125;61.360;-149.532;2023-07-29T02:47:02;100188.57;;;20.11;52.82
60267;BME280;46125;61.360;-149.532;2023-07-29T02:49:30;100186.25;;;21.75;50.29
60267;BME280;46125;61.360;-149.532;2023-07-29T02:52:00;100181.10;;;22.45;49.54
60267;BME280;46125;61.360;-149.532;2023-07-29T02:54:28;100179.03;;;22.52;49.81
60267;BME280;46125;61.360;-149.532;2023-07-29T02:56:57;100181.73;;;20.94;53.08
60267;BME280;46125;61.360;-149.532;2023-07-29T02:59:26;100179.24;;;22.27;48.53
60267;BME280;46125;61.360;-149.532;2023-07-29T03:01:54;100178.04;;;22.32;49.20
60267;BME280;46125;61.360;-149.532;2023-07-29T03:04:23;100176.92;;;21.33;51.04
60267;BME280;46125;61.360;-149.532;2023-07-29T03:06:52;100175.96;;;21.39;51.44
60267;BME280;46125;61.360;-149.532;2023-07-29T03:09:21;100178.70;;;22.09;48.00
60267;BME280;46125;61.360;-149.532;2023-07-29T03:11:49;100177.98;;;21.83;49.83
60267;BME280;46125;61.360;-149.532;2023-07-29T03:14:18;100179.66;;;20.14;50.45
60267;BME280;46125;61.360;-149.532;2023-07-29T03:16:46;100174.29;;;21.70;48.14
60267;BME280;46125;61.360;-149.532;2023-07-29T03:19:16;100175.73;;;21.91;47.64
60267;BME280;46125;61.360;-149.532;2023-07-29T03:21:45;100178.31;;;22.00;47.67
60267;BME280;46125;61.360;-149.532;2023-07-29T03:24:13;100177.67;;;20.74;47.95
60267;BME280;46125;61.360;-149.532;2023-07-29T03:26:42;100180.29;;;20.23;50.36
60267;BME280;46125;61.360;-149.532;2023-07-29T03:29:10;100179.98;;;20.29;49.89
60267;BME280;46125;61.360;-149.532;2023-07-29T03:31:39;100178.62;;;21.98;47.57
60267;BME280;46125;61.360;-149.532;2023-07-29T03:34:08;100180.42;;;22.52;47.86
60267;BME280;46125;61.360;-149.532;2023-07-29T03:36:37;100176.59;;;21.85;47.84
60267;BME280;46125;61.360;-149.532;2023-07-29T03:39:05;100174.23;;;21.65;49.99
60267;BME280;46125;61.360;-149.532;2023-07-29T03:41:33;100175.63;;;21.49;50.82
60267;BME280;46125;61.360;-149.532;2023-07-29T03:44:02;100181.22;;;21.21;51.50
60267;BME280;46125;61.360;-149.532;2023-07-29T03:46:30;100178.08;;;21.39;50.87
60267;BME280;46125;61.360;-149.532;2023-07-29T03:48:59;100180.43;;;21.83;49.72
60267;BME280;46125;61.360;-149.532;2023-07-29T03:51:28;100179.73;;;22.09;49.06
60267;BME280;46125;61.360;-149.532;2023-07-29T03:53:57;100181.23;;;22.43;47.43
60267;BME280;46125;61.360;-149.532;2023-07-29T03:56:25;100176.17;;;21.22;47.93
60267;BME280;46125;61.360;-149.532;2023-07-29T03:58:57;100171.22;;;22.13;47.31
60267;BME280;46125;61.360;-149.532;2023-07-29T04:01:35;100170.36;;;21.76;48.12
60267;BME280;46125;61.360;-149.532;2023-07-29T04:04:04;100173.82;;;22.04;48.77
60267;BME280;46125;61.360;-149.532;2023-07-29T04:06:33;100168.82;;;21.93;47.32
60267;BME280;46125;61.360;-149.532;2023-07-29T04:09:01;100170.01;;;21.53;49.80
60267;BME280;46125;61.360;-149.532;2023-07-29T04:11:30;100171.96;;;21.19;51.61
60267;BME280;46125;61.360;-149.532;2023-07-29T04:13:58;100167.86;;;21.28;51.90
60267;BME280;46125;61.360;-149.532;2023-07-29T04:16:27;100170.43;;;19.29;56.08
60267;BME280;46125;61.360;-149.532;2023-07-29T04:18:56;100175.07;;;18.10;59.90
60267;BME280;46125;61.360;-149.532;2023-07-29T04:21:24;100173.53;;;18.44;58.12
60267;BME280;46125;61.360;-149.532;2023-07-29T04:23:53;100172.59;;;19.57;55.24
60267;BME280;46125;61.360;-149.532;2023-07-29T04:26:21;100173.67;;;19.23;56.62
60267;BME280;46125;61.360;-149.532;2023-07-29T04:28:50;100176.51;;;18.63;57.49
60267;BME280;46125;61.360;-149.532;2023-07-29T04:31:18;100173.75;;;19.19;56.82
60267;BME280;46125;61.360;-149.532;2023-07-29T04:33:47;100177.28;;;18.01;59.49
60267;BME280;46125;61.360;-149.532;2023-07-29T04:36:16;100180.50;;;18.51;58.73
60267;BME280;46125;61.360;-149.532;2023-07-29T04:38:44;100184.45;;;18.55;58.46
60267;BME280;46125;61.360;-149.532;2023-07-29T04:41:13;100183.69;;;17.44;60.38
60267;BME280;46125;61.360;-149.532;2023-07-29T04:43:41;100181.15;;;17.78;60.68
60267;BME280;46125;61.360;-149.532;2023-07-29T04:46:10;100177.92;;;18.62;58.97
60267;BME280;46125;61.360;-149.532;2023-07-29T04:48:43;100175.62;;;18.67;57.49
60267;BME280;46125;61.360;-149.532;2023-07-29T04:51:13;100171.18;;;19.31;55.19
60267;BME280;46125;61.360;-149.532;2023-07-29T04:53:41;100172.96;;;18.75;56.77
60267;BME280;46125;61.360;-149.532;2023-07-29T04:56:16;100174.75;;;18.78;56.99
60267;BME280;46125;61.360;-149.532;2023-07-29T04:58:44;100178.26;;;18.99;56.90
60267;BME280;46125;61.360;-149.532;2023-07-29T05:01:13;100175.78;;;18.46;56.96
60267;BME280;46125;61.360;-149.532;2023-07-29T05:03:41;100180.13;;;17.97;59.28
60267;BME280;46125;61.360;-149.532;2023-07-29T05:06:09;100178.10;;;18.88;56.32
60267;BME280;46125;61.360;-149.532;2023-07-29T05:08:38;100180.93;;;18.95;56.36
60267;BME280;46125;61.360;-149.532;2023-07-29T05:11:07;100180.43;;;17.48;59.77
60267;BME280;46125;61.360;-149.532;2023-07-29T05:13:37;100174.90;;;18.87;55.05
60267;BME280;46125;61.360;-149.532;2023-07-29T05:16:05;100173.46;;;19.83;54.45
60267;BME280;46125;61.360;-149.532;2023-07-29T05:18:34;100175.68;;;20.01;53.58
60267;BME280;46125;61.360;-149.532;2023-07-29T05:21:02;100177.10;;;19.03;54.68
60267;BME280;46125;61.360;-149.532;2023-07-29T05:23:31;100179.29;;;19.93;53.24
60267;BME280;46125;61.360;-149.532;2023-07-29T05:25:59;100179.32;;;19.77;53.87
60267;BME280;46125;61.360;-149.532;2023-07-29T05:28:28;100185.32;;;19.71;54.63
60267;BME280;46125;61.360;-149.532;2023-07-29T05:30:56;100182.54;;;18.43;57.13
60267;BME280;46125;61.360;-149.532;2023-07-29T05:33:24;100180.18;;;19.29;55.60
60267;BME280;46125;61.360;-149.532;2023-07-29T05:35:53;100176.45;;;19.47;54.83
60267;BME280;46125;61.360;-149.532;2023-07-29T05:38:21;100177.76;;;18.81;55.38
60267;BME280;46125;61.360;-149.532;2023-07-29T05:40:55;100177.45;;;19.48;53.97
60267;BME280;46125;61.360;-149.532;2023-07-29T05:43:25;100176.03;;;19.82;54.07
60267;BME280;46125;61.360;-149.532;2023-07-29T05:45:53;100175.87;;;19.81;54.24
60267;BME280;46125;61.360;-149.532;2023-07-29T05:48:22;100171.79;;;19.84;53.54
60267;BME280;46125;61.360;-149.532;2023-07-29T05:50:51;100173.75;;;20.38;53.19
60267;BME280;46125;61.360;-149.532;2023-07-29T05:53:19;100173.32;;;20.03;52.50
60267;BME280;46125;61.360;-149.532;2023-07-29T05:55:47;100173.27;;;18.20;56.65
60267;BME280;46125;61.360;-149.532;2023-07-29T05:58:17;100170.84;;;18.86;54.59
60267;BME280;46125;61.360;-149.532;2023-07-29T06:00:46;100171.79;;;18.29;57.18
60267;BME280;46125;61.360;-149.532;2023-07-29T06:03:13;100174.25;;;18.21;58.10
60267;BME280;46125;61.360;-149.532;2023-07-29T06:05:42;100175.12;;;17.94;58.91
60267;BME280;46125;61.360;-149.532;2023-07-29T06:08:11;100178.52;;;18.14;58.22
60267;BME280;46125;61.360;-149.532;2023-07-29T06:10:44;100179.60;;;18.67;57.43
60267;BME280;46125;61.360;-149.532;2023-07-29T06:13:12;100178.57;;;19.38;55.66
60267;BME280;46125;61.360;-149.532;2023-07-29T06:15:41;100175.91;;;19.23;56.36
60267;BME280;46125;61.360;-149.532;2023-07-29T06:18:10;100175.64;;;19.10;55.95
60267;BME280;46125;61.360;-149.532;2023-07-29T06:20:39;100174.29;;;19.15;55.45
60267;BME280;46125;61.360;-149.532;2023-07-29T06:23:17;100179.03;;;18.09;57.78
60267;BME280;46125;61.360;-149.532;2023-07-29T06:25:51;100181.79;;;18.89;56.93
60267;BME280;46125;61.360;-149.532;2023-07-29T06:28:19;100176.77;;;19.16;55.76
60267;BME280;46125;61.360;-149.532;2023-07-29T06:30:48;100177.57;;;18.81;57.43
60267;BME280;46125;61.360;-149.532;2023-07-29T06:33:24;100175.09;;;19.43;55.38
60267;BME280;46125;61.360;-149.532;2023-07-29T06:35:52;100172.84;;;19.12;56.11
60267;BME280;46125;61.360;-149.532;2023-07-29T06:38:21;100173.50;;;19.14;56.36
60267;BME280;46125;61.360;-149.532;2023-07-29T06:40:49;100176.29;;;19.39;56.48
60267;BME280;46125;61.360;-149.532;2023-07-29T06:43:18;100170.08;;;19.14;56.53
60267;BME280;46125;61.360;-149.532;2023-07-29T06:45:46;100171.13;;;19.21;56.59
60267;BME280;46125;61.360;-149.532;2023-07-29T06:48:15;100170.32;;;18.79;57.33
60267;BME280;46125;61.360;-149.532;2023-07-29T06:50:45;100168.91;;;19.02;57.08
60267;BME280;46125;61.360;-149.532;2023-07-29T06:53:14;100171.17;;;19.35;55.90
60267;BME280;46125;61.360;-149.532;2023-07-29T06:55:43;100176.13;;;18.66;56.99
60267;BME280;46125;61.360;-149.532;2023-07-29T06:58:12;100174.37;;;19.19;55.97
60267;BME280;46125;61.360;-149.532;2023-07-29T07:00:41;100176.89;;;19.28;55.19
60267;BME280;46125;61.360;-149.532;2023-07-29T07:03:10;100178.87;;;19.19;55.51
60267;BME280;46125;61.360;-149.532;2023-07-29T07:05:40;100177.06;;;19.60;54.85
60267;BME280;46125;61.360;-149.532;2023-07-29T07:08:08;100176.80;;;19.44;55.47
60267;BME280;46125;61.360;-149.532;2023-07-29T07:10:37;100180.72;;;19.52;55.30
60267;BME280;46125;61.360;-149.532;2023-07-29T07:13:05;100181.80;;;19.87;55.20
60267;BME280;46125;61.360;-149.532;2023-07-29T07:15:34;100180.66;;;19.34;55.46
60267;BME280;46125;61.360;-149.532;2023-07-29T07:18:02;100181.86;;;19.54;55.58
60267;BME280;46125;61.360;-149.532;2023-07-29T07:20:30;100181.51;;;19.63;54.69
60267;BME280;46125;61.360;-149.532;2023-07-29T07:22:59;100179.16;;;19.38;55.20
60267;BME280;46125;61.360;-149.532;2023-07-29T07:25:28;100177.19;;;19.53;54.35
60267;BME280;46125;61.360;-149.532;2023-07-29T07:27:56;100172.94;;;19.36;54.85
60267;BME280;46125;61.360;-149.532;2023-07-29T07:30:25;100166.28;;;19.38;55.80
60267;BME280;46125;61.360;-149.532;2023-07-29T07:33:03;100165.91;;;19.23;56.74
60267;BME280;46125;61.360;-149.532;2023-07-29T07:35:31;100171.01;;;18.64;57.65
60267;BME280;46125;61.360;-149.532;2023-07-29T07:38:00;100174.71;;;18.60;57.36
60267;BME280;46125;61.360;-149.532;2023-07-29T07:40:29;100175.19;;;19.13;57.19
60267;BME280;46125;61.360;-149.532;2023-07-29T07:42:57;100181.00;;;18.56;57.42
60267;BME280;46125;61.360;-149.532;2023-07-29T07:45:32;100178.08;;;18.97;56.35
60267;BME280;46125;61.360;-149.532;2023-07-29T07:48:00;100179.39;;;19.23;56.07
60267;BME280;46125;61.360;-149.532;2023-07-29T07:50:30;100178.85;;;19.54;55.86
60267;BME280;46125;61.360;-149.532;2023-07-29T07:52:59;100177.05;;;19.07;56.43
60267;BME280;46125;61.360;-149.532;2023-07-29T07:55:27;100178.81;;;19.30;55.84
60267;BME280;46125;61.360;-149.532;2023-07-29T07:57:56;100176.96;;;19.37;55.86
60267;BME280;46125;61.360;-149.532;2023-07-29T08:00:25;100178.87;;;18.73;56.50
60267;BME280;46125;61.360;-149.532;2023-07-29T08:02:54;100179.37;;;18.90;56.84
60267;BME280;46125;61.360;-149.532;2023-07-29T08:05:22;100177.04;;;19.15;56.80
60267;BME280;46125;61.360;-149.532;2023-07-29T08:07:50;100174.44;;;19.13;56.12
60267;BME280;46125;61.360;-149.532;2023-07-29T08:10:19;100173.41;;;19.21;56.51
60267;BME280;46125;61.360;-149.532;2023-07-29T08:12:47;100173.27;;;19.25;56.45
60267;BME280;46125;61.360;-149.532;2023-07-29T08:15:16;100169.37;;;19.52;56.38
60267;BME280;46125;61.360;-149.532;2023-07-29T08:17:46;100172.35;;;19.26;56.52
60267;BME280;46125;61.360;-149.532;2023-07-29T08:20:15;100175.36;;;19.12;56.68
60267;BME280;46125;61.360;-149.532;2023-07-29T08:22:43;100176.01;;;17.74;59.98
60267;BME280;46125;61.360;-149.532;2023-07-29T08:25:12;100175.08;;;18.17;60.12
60267;BME280;46125;61.360;-149.532;2023-07-29T08:27:40;100175.84;;;18.41;58.50
60267;BME280;46125;61.360;-149.532;2023-07-29T08:30:09;100176.25;;;18.44;58.53
60267;BME280;46125;61.360;-149.532;2023-07-29T08:32:39;100177.89;;;18.87;57.19
60267;BME280;46125;61.360;-149.532;2023-07-29T08:35:09;100175.60;;;17.36;60.87
60267;BME280;46125;61.360;-149.532;2023-07-29T08:37:37;100175.72;;;18.41;58.53
60267;BME280;46125;61.360;-149.532;2023-07-29T08:40:07;100173.92;;;18.54;58.53
60267;BME280;46125;61.360;-149.532;2023-07-29T08:42:36;100176.42;;;19.22;57.90
60267;BME280;46125;61.360;-149.532;2023-07-29T08:45:08;100177.52;;;18.51;58.05
60267;BME280;46125;61.360;-149.532;2023-07-29T08:47:37;100174.17;;;18.75;57.32
60267;BME280;46125;61.360;-149.532;2023-07-29T08:50:07;100174.73;;;19.01;56.95
60267;BME280;46125;61.360;-149.532;2023-07-29T08:52:37;100177.35;;;18.90;57.19
60267;BME280;46125;61.360;-149.532;2023-07-29T08:55:06;100179.17;;;18.76;57.38
60267;BME280;46125;61.360;-149.532;2023-07-29T08:57:36;100177.27;;;18.82;57.33
60267;BME280;46125;61.360;-149.532;2023-07-29T09:00:06;100173.30;;;18.73;57.73
60267;BME280;46125;61.360;-149.532;2023-07-29T09:02:35;100175.30;;;18.67;57.62
60267;BME280;46125;61.360;-149.532;2023-07-29T09:05:05;100173.91;;;18.70;58.06
60267;BME280;46125;61.360;-149.532;2023-07-29T09:07:35;100173.15;;;18.72;58.15
60267;BME280;46125;61.360;-149.532;2023-07-29T09:10:08;100169.74;;;18.78;57.29
60267;BME280;46125;61.360;-149.532;2023-07-29T09:12:38;100167.28;;;18.07;58.95
60267;BME280;46125;61.360;-149.532;2023-07-29T09:15:07;100165.68;;;17.59;60.42
60267;BME280;46125;61.360;-149.532;2023-07-29T09:17:36;100164.50;;;18.61;57.68
60267;BME280;46125;61.360;-149.532;2023-07-29T09:20:05;100163.51;;;18.63;57.45
60267;BME280;46125;61.360;-149.532;2023-07-29T09:22:34;100160.91;;;19.05;56.76
60267;BME280;46125;61.360;-149.532;2023-07-29T09:25:02;100163.43;;;18.86;57.47
60267;BME280;46125;61.360;-149.532;2023-07-29T09:27:31;100162.71;;;18.92;57.17
60267;BME280;46125;61.360;-149.532;2023-07-29T09:29:59;100168.74;;;18.08;58.66
60267;BME280;46125;61.360;-149.532;2023-07-29T09:32:28;100168.28;;;17.58;59.29
60267;BME280;46125;61.360;-149.532;2023-07-29T09:34:56;100171.07;;;17.79;59.68
60267;BME280;46125;61.360;-149.532;2023-07-29T09:37:25;100171.39;;;18.41;58.07
60267;BME280;46125;61.360;-149.532;2023-07-29T09:39:53;100172.86;;;18.79;57.18
60267;BME280;46125;61.360;-149.532;2023-07-29T09:42:22;100172.64;;;18.91;57.82
60267;BME280;46125;61.360;-149.532;2023-07-29T09:44:51;100172.28;;;18.93;57.03
60267;BME280;46125;61.360;-149.532;2023-07-29T09:47:22;100172.15;;;19.21;56.47
60267;BME280;46125;61.360;-149.532;2023-07-29T09:49:51;100176.04;;;18.69;57.31
60267;BME280;46125;61.360;-149.532;2023-07-29T09:52:22;100175.88;;;19.04;56.26
60267;BME280;46125;61.360;-149.532;2023-07-29T09:54:51;100175.81;;;19.21;55.99
60267;BME280;46125;61.360;-149.532;2023-07-29T09:57:19;100175.58;;;19.18;56.29
60267;BME280;46125;61.360;-149.532;2023-07-29T09:59:55;100175.98;;;19.24;56.35
60267;BME280;46125;61.360;-149.532;2023-07-29T10:02:24;100173.84;;;19.41;55.95
60267;BME280;46125;61.360;-149.532;2023-07-29T10:04:53;100176.19;;;19.49;55.78
60267;BME280;46125;61.360;-149.532;2023-07-29T10:07:23;100176.70;;;19.14;56.23
60267;BME280;46125;61.360;-149.532;2023-07-29T10:09:52;100180.14;;;19.37;55.81
60267;BME280;46125;61.360;-149.532;2023-07-29T10:12:22;100175.93;;;19.04;56.98
60267;BME280;46125;61.360;-149.532;2023-07-29T10:14:53;100174.81;;;19.24;56.51
60267;BME280;46125;61.360;-149.532;2023-07-29T10:17:22;100171.13;;;19.16;56.84
60267;BME280;46125;61.360;-149.532;2023-07-29T10:19:51;100169.18;;;19.01;57.13
60267;BME280;46125;61.360;-149.532;2023-07-29T10:22:20;100170.06;;;19.18;56.68
60267;BME280;46125;61.360;-149.532;2023-07-29T10:24:50;100170.08;;;19.16;56.74
60267;BME280;46125;61.360;-149.532;2023-07-29T10:27:20;100169.80;;;19.13;57.04
60267;BME280;46125;61.360;-149.532;2023-07-29T10:29:50;100168.00;;;19.00;56.76
60267;BME280;46125;61.360;-149.532;2023-07-29T10:32:20;100168.75;;;17.54;60.41
60267;BME280;46125;61.360;-149.532;2023-07-29T10:34:52;100168.90;;;18.48;59.09
60267;BME280;46125;61.360;-149.532;2023-07-29T10:37:22;100168.03;;;18.66;58.10
60267;BME280;46125;61.360;-149.532;2023-07-29T10:39:55;100168.91;;;18.27;59.87
60267;BME280;46125;61.360;-149.532;2023-07-29T10:42:23;100170.06;;;18.47;58.88
60267;BME280;46125;61.360;-149.532;2023-07-29T10:44:52;100171.48;;;18.64;58.56
60267;BME280;46125;61.360;-149.532;2023-07-29T10:47:23;100170.47;;;18.42;59.33
60267;BME280;46125;61.360;-149.532;2023-07-29T10:49:53;100169.12;;;18.43;59.26
60267;BME280;46125;61.360;-149.532;2023-07-29T10:52:41;100165.18;;;18.64;58.35
60267;BME280;46125;61.360;-149.532;2023-07-29T10:55:26;100160.90;;;18.44;59.38
60267;BME280;46125;61.360;-149.532;2023-07-29T10:58:07;100162.50;;;18.94;58.88
60267;BME280;46125;61.360;-149.532;2023-07-29T11:00:36;100163.53;;;19.02;58.73
60267;BME280;46125;61.360;-149.532;2023-07-29T11:03:06;100163.25;;;19.01;58.11
60267;BME280;46125;61.360;-149.532;2023-07-29T11:05:52;100163.19;;;19.26;57.49
60267;BME280;46125;61.360;-149.532;2023-07-29T11:08:26;100159.74;;;19.26;57.38
60267;BME280;46125;61.360;-149.532;2023-07-29T11:11:01;100159.18;;;19.28;57.35
60267;BME280;46125;61.360;-149.532;2023-07-29T11:13:32;100159.90;;;19.19;57.16
60267;BME280;46125;61.360;-149.532;2023-07-29T11:16:01;100159.02;;;18.24;59.82
60267;BME280;46125;61.360;-149.532;2023-07-29T11:18:31;100155.86;;;17.44;61.53
60267;BME280;46125;61.360;-149.532;2023-07-29T11:21:00;100158.43;;;18.50;59.33
60267;BME280;46125;61.360;-149.532;2023-07-29T11:23:31;100160.32;;;16.21;65.75
60267;BME280;46125;61.360;-149.532;2023-07-29T11:26:00;100155.90;;;18.33;60.94
60267;BME280;46125;61.360;-149.532;2023-07-29T11:28:29;100154.03;;;18.42;59.47
60267;BME280;46125;61.360;-149.532;2023-07-29T11:30:58;100148.55;;;18.82;58.57
60267;BME280;46125;61.360;-149.532;2023-07-29T11:33:27;100148.89;;;19.22;58.12
60267;BME280;46125;61.360;-149.532;2023-07-29T11:35:55;100146.36;;;19.06;57.71
60267;BME280;46125;61.360;-149.532;2023-07-29T11:38:23;100145.44;;;18.96;57.86
60267;BME280;46125;61.360;-149.532;2023-07-29T11:40:58;100146.41;;;18.80;57.93
60267;BME280;46125;61.360;-149.532;2023-07-29T11:43:26;100144.43;;;18.52;58.90
60267;BME280;46125;61.360;-149.532;2023-07-29T11:45:55;100141.63;;;18.89;57.91
60267;BME280;46125;61.360;-149.532;2023-07-29T11:48:32;100138.74;;;19.05;57.63
60267;BME280;46125;61.360;-149.532;2023-07-29T11:51:01;100137.02;;;19.22;57.05
60267;BME280;46125;61.360;-149.532;2023-07-29T11:53:30;100138.63;;;19.28;56.88
60267;BME280;46125;61.360;-149.532;2023-07-29T11:55:59;100135.53;;;19.35;56.63
60267;BME280;46125;61.360;-149.532;2023-07-29T11:58:27;100132.76;;;19.13;56.49
60267;BME280;46125;61.360;-149.532;2023-07-29T12:00:56;100132.02;;;19.37;56.70
60267;BME280;46125;61.360;-149.532;2023-07-29T12:03:26;100129.51;;;17.44;61.15
60267;BME280;46125;61.360;-149.532;2023-07-29T12:05:55;100129.89;;;18.77;58.32
60267;BME280;46125;61.360;-149.532;2023-07-29T12:08:24;100130.78;;;18.80;57.69
60267;BME280;46125;61.360;-149.532;2023-07-29T12:10:53;100131.63;;;19.24;56.96
60267;BME280;46125;61.360;-149.532;2023-07-29T12:13:24;100133.86;;;19.29;56.68
60267;BME280;46125;61.360;-149.532;2023-07-29T12:16:01;100134.37;;;19.41;56.53
60267;BME280;46125;61.360;-149.532;2023-07-29T12:18:31;100131.36;;;19.16;56.99
60267;BME280;46125;61.360;-149.532;2023-07-29T12:21:01;100130.18;;;19.07;56.85
60267;BME280;46125;61.360;-149.532;2023-07-29T12:23:30;100129.55;;;19.48;56.43
60267;BME280;46125;61.360;-149.532;2023-07-29T12:25:59;100127.97;;;19.24;56.41
60267;BME280;46125;61.360;-149.532;2023-07-29T12:28:28;100127.67;;;19.34;56.85
60267;BME280;46125;61.360;-149.532;2023-07-29T12:30:56;100124.03;;;19.03;57.02
60267;BME280;46125;61.360;-149.532;2023-07-29T12:33:33;100126.74;;;19.36;56.58